Air Resources Laboratory banner image
Air Resources Laboratory web site National Oceanic and Atmospheric Administration (NOAA)

sc metar


KAND 170556Z AUTO 05006KT 10SM OVC065 21/19 A2997 RMK AO2 SLP138 60000
 T02110189 10233 20211 56010=
KCAE 170556Z 31004KT 10SM OVC026 22/20 A2992 RMK AO2 SLP130 60001 T02220200
 10233 20222 58008=
KCEU 170636Z AUTO 03005KT 10SM FEW007 SCT060 OVC075 20/19 A2998 RMK AO2
 T02000194=
KCHS 170556Z 01006KT 10SM SCT022 SCT110 23/21 A2989 RMK AO2 SLP120 60000
 T02330211 10250 20228 58010=
KCRE 170639Z AUTO 02006KT 10SM BKN028 BKN120 22/22 A2988 RMK AO1 T02220217=
KCUB 170609Z AUTO 33003KT 10SM OVC028 23/19 A2993 RMK AO2 T02280194=
KGRD 170556Z AUTO 35003KT 9SM BKN034 OVC075 21/19 A2997 RMK AO2 SLP961 60000
 T02060194 10228 20206 58007=
KMMT 170555Z AUTO 02003KT 10SM OVC100 22/21 A2989 RMK AO2 SLPNO 60000 T02160209
 10225 20214 58016 FZRANO $=
KMYR 170624Z AUTO 36006KT 10SM BKN018 OVC100 23/22 A2989 RMK AO2=
KNBC 170556Z AUTO 02009KT 10SM FEW010 BKN090 24/21 A2989 RMK AO2 SLP123
 T02390211 10256 20233 58006=
KSSC 170555Z 01007KT 10SM BKN023 BKN029 OVC036 22/19 A2990 RMK AO2A SLP124
 60000 T02190194 10228 20218 57016 $=
KUZA 170554Z AUTO 04005KT 10SM FEW036 SCT075 21/18 A2997 RMK AO2 SLP138
 T02060183 10217 20200 58010=